LELC/MJV METAR and TAF weather

Enter ICAO airport designator
Station Type Date Time Source
LELC METAR 2020/10/29 16:30 UTC NOAA

LELC 291630Z AUTO 06004KT 020V110 CAVOK 20/16 Q1025


Station Type Date Time Source
LELC Decoded METAR 2020/10/29 16:30 UTC NOAA

Murcia / San Javier, Spain (LELC) 37-47N 000-48W 3M
Oct 29, 2020 - 12:30 PM EDT / 2020.10.29 1630 UTC
Wind: from the ENE (060 degrees) at 5 MPH (4 KT) (direction variable):0
Visibility: greater than 7 mile(s):0
Temperature: 68 F (20 C)
Dew Point: 60 F (16 C)
Relative Humidity: 77%
Pressure (altimeter): 30.27 in. Hg (1025 hPa)
ob: LELC 291630Z AUTO 06004KT 020V110 CAVOK 20/16 Q1025
cycle: 16

Station Type Date Time Source
LELC TAF 2020/10/29 12:27 UTC NOAA

TAF LELC 291100Z 2912/3012 07006KT 9999 FEW030 TX23/2913Z TN11/3006Z

Example: see airport list